createdAt,value
2023-04-16T00:01:40.688Z,101153.63
2023-04-16T00:04:08.678Z,101172.63
2023-04-16T00:06:36.583Z,101175.25
2023-04-16T00:09:05.709Z,101168.38
2023-04-16T00:11:33.845Z,101163.16
2023-04-16T00:14:01.760Z,101170.94
2023-04-16T00:16:30.066Z,101155.31
2023-04-16T00:18:57.651Z,101172.59
2023-04-16T00:21:25.412Z,101171.69
2023-04-16T00:23:53.085Z,101177.78
2023-04-16T00:26:22.072Z,101166.47
2023-04-16T00:28:49.848Z,101171.69
2023-04-16T00:31:17.847Z,101170.84
2023-04-16T00:33:45.412Z,101174.31
2023-04-16T00:36:14.434Z,101173.44
2023-04-16T00:38:42.522Z,101174.31
2023-04-16T00:41:10.112Z,101167.31
2023-04-16T00:43:39.372Z,101176.06
2023-04-16T00:46:07.226Z,101170.94
2023-04-16T00:48:35.875Z,101166.63
2023-04-16T00:51:05.158Z,101167.47
2023-04-16T00:53:33.905Z,101161.56
2023-04-16T00:56:03.063Z,101171.06
2023-04-16T00:58:31.534Z,101170.22
2023-04-16T01:01:00.784Z,101162.59
2023-04-16T01:03:37.571Z,101174.69
2023-04-16T01:06:06.449Z,101156.59
2023-04-16T01:08:34.129Z,101168.75
2023-04-16T01:11:02.286Z,101168.88
2023-04-16T01:13:30.934Z,101174.22
2023-04-16T01:16:00.024Z,101170.00
2023-04-16T01:18:27.817Z,101171.00
2023-04-16T01:20:56.825Z,101165.88
2023-04-16T01:23:24.898Z,101169.50
2023-04-16T01:25:52.750Z,101169.56
2023-04-16T01:28:20.483Z,101168.72
2023-04-16T01:30:48.146Z,101171.47
2023-04-16T01:33:15.898Z,101167.16
2023-04-16T01:35:43.779Z,101165.41
2023-04-16T01:38:12.769Z,101166.31
2023-04-16T01:40:40.546Z,101163.72
2023-04-16T01:43:08.286Z,101167.22
2023-04-16T01:45:36.442Z,101167.25
2023-04-16T01:48:04.593Z,101161.16
2023-04-16T01:50:33.398Z,101161.09
2023-04-16T01:53:01.220Z,101168.94
2023-04-16T01:55:30.372Z,101170.69
2023-04-16T01:57:58.375Z,101155.06
2023-04-16T02:00:25.980Z,101161.09
2023-04-16T02:02:54.108Z,101172.41
2023-04-16T02:05:21.953Z,101176.78
2023-04-16T02:07:49.648Z,101169.91
2023-04-16T02:10:17.627Z,101169.03
2023-04-16T02:12:46.920Z,101169.78
2023-04-16T02:15:15.010Z,101158.34
2023-04-16T02:17:42.843Z,101164.97
2023-04-16T02:20:11.378Z,101156.78
2023-04-16T02:22:38.969Z,101166.66
2023-04-16T02:25:07.222Z,101166.56
2023-04-16T02:27:35.568Z,101173.47
2023-04-16T02:30:05.280Z,101169.16
2023-04-16T02:32:33.349Z,101170.81
2023-04-16T02:35:01.111Z,101169.00
2023-04-16T02:37:28.663Z,101177.75
2023-04-16T02:39:56.712Z,101178.72
2023-04-16T02:42:24.444Z,101181.19
2023-04-16T02:44:51.997Z,101183.81
2023-04-16T02:47:21.468Z,101183.81
2023-04-16T02:49:49.280Z,101188.94
2023-04-16T02:52:17.052Z,101188.78
2023-04-16T02:54:44.789Z,101187.00
2023-04-16T02:57:12.402Z,101188.81
2023-04-16T02:59:39.951Z,101194.88
2023-04-16T03:02:07.764Z,101193.09
2023-04-16T03:04:37.129Z,101198.38
2023-04-16T03:07:04.900Z,101199.19
2023-04-16T03:09:32.711Z,101190.56
2023-04-16T03:12:00.705Z,101196.59
2023-04-16T03:14:28.992Z,101179.34
2023-04-16T03:16:56.862Z,101193.94
2023-04-16T03:19:24.665Z,101200.78
2023-04-16T03:21:53.777Z,101198.91
2023-04-16T03:24:21.485Z,101207.53
2023-04-16T03:26:49.201Z,101212.63
2023-04-16T03:29:16.749Z,101209.03
2023-04-16T03:31:44.507Z,101212.44
2023-04-16T03:34:12.123Z,101206.25
2023-04-16T03:36:39.731Z,101206.84
2023-04-16T03:39:09.195Z,101220.47
2023-04-16T03:41:37.944Z,101217.72
2023-04-16T03:44:05.622Z,101227.88
2023-04-16T03:46:33.697Z,101229.56
2023-04-16T03:49:01.727Z,101239.91
2023-04-16T03:51:29.476Z,101235.44
2023-04-16T03:53:57.192Z,101242.19
2023-04-16T03:56:26.213Z,101239.28
2023-04-16T03:58:53.853Z,101249.97
2023-04-16T04:01:21.502Z,101252.66
2023-04-16T04:03:49.460Z,101234.06
2023-04-16T04:06:17.263Z,101241.00
2023-04-16T04:08:45.564Z,101248.19
2023-04-16T04:11:13.408Z,101240.00
2023-04-16T04:13:42.458Z,101241.66
2023-04-16T04:16:10.268Z,101229.88
2023-04-16T04:18:37.980Z,101219.44
2023-04-16T04:21:06.405Z,101244.97
2023-04-16T04:23:34.698Z,101252.53
2023-04-16T04:26:02.772Z,101245.97
2023-04-16T04:28:30.572Z,101249.25
2023-04-16T04:31:00.332Z,101258.56
2023-04-16T04:33:28.307Z,101259.38
2023-04-16T04:35:55.830Z,101269.22
2023-04-16T04:38:23.619Z,101270.31
2023-04-16T04:40:51.768Z,101269.63
2023-04-16T04:43:19.522Z,101268.84
2023-04-16T04:45:47.509Z,101284.28
2023-04-16T04:48:16.822Z,101281.50
2023-04-16T04:50:45.386Z,101263.84
2023-04-16T04:53:13.374Z,101271.94
2023-04-16T04:55:40.951Z,101257.59
2023-04-16T04:58:09.062Z,101277.91
2023-04-16T05:00:37.341Z,101285.56
2023-04-16T05:03:09.695Z,101287.28
2023-04-16T05:05:39.250Z,101311.94
2023-04-16T05:08:08.640Z,101309.00
2023-04-16T05:10:36.228Z,101312.59
2023-04-16T05:13:03.943Z,101309.56
2023-04-16T05:15:32.102Z,101306.72
2023-04-16T05:17:59.648Z,101293.50
2023-04-16T05:20:27.460Z,101269.22
2023-04-16T05:22:56.528Z,101277.66
2023-04-16T05:25:24.196Z,101275.28
2023-04-16T05:27:52.074Z,101279.94
2023-04-16T05:30:19.905Z,101297.13
2023-04-16T05:32:47.488Z,101301.53
2023-04-16T05:35:17.343Z,101311.28
2023-04-16T05:37:45.420Z,101313.81
2023-04-16T05:40:14.675Z,101310.13
2023-04-16T05:42:42.749Z,101318.28
2023-04-16T05:45:11.038Z,101305.16
2023-04-16T05:47:38.795Z,101302.47
2023-04-16T05:50:07.688Z,101307.22
2023-04-16T05:52:35.975Z,101296.44
2023-04-16T05:55:03.645Z,101278.84
2023-04-16T05:57:33.623Z,101288.22
2023-04-16T06:00:01.852Z,101283.00
2023-04-16T06:02:30.215Z,101275.34
2023-04-16T06:04:57.951Z,101275.09
2023-04-16T06:07:25.613Z,101285.91
2023-04-16T06:09:53.811Z,101288.78
2023-04-16T06:12:21.646Z,101297.34
2023-04-16T06:14:50.661Z,101315.25
2023-04-16T06:17:18.225Z,101332.31
2023-04-16T06:19:46.138Z,101336.59
2023-04-16T06:22:13.940Z,101353.63
2023-04-16T06:24:42.100Z,101349.44
2023-04-16T06:27:09.828Z,101372.19
2023-04-16T06:29:41.387Z,101368.63
2023-04-16T06:32:11.253Z,101377.44
2023-04-16T06:34:39.063Z,101379.16
2023-04-16T06:37:09.098Z,101391.41
2023-04-16T06:39:38.268Z,101398.63
2023-04-16T06:42:05.994Z,101405.13
2023-04-16T06:44:33.586Z,101406.41
2023-04-16T06:47:01.398Z,101406.78
2023-04-16T06:49:30.904Z,101416.59
2023-04-16T06:51:58.544Z,101415.84
2023-04-16T06:54:26.392Z,101402.94
2023-04-16T06:56:54.032Z,101414.28
2023-04-16T06:59:21.681Z,101415.19
2023-04-16T07:01:49.521Z,101402.94
2023-04-16T07:04:17.347Z,101394.16
2023-04-16T07:06:46.454Z,101391.63
2023-04-16T07:09:14.162Z,101390.72
2023-04-16T07:11:42.231Z,101363.66
2023-04-16T07:14:09.809Z,101352.31
2023-04-16T07:16:37.612Z,101355.69
2023-04-16T07:19:05.495Z,101357.13
2023-04-16T07:21:33.195Z,101347.22
2023-04-16T07:24:02.743Z,101360.19
2023-04-16T07:26:30.585Z,101356.56
2023-04-16T07:28:58.125Z,101356.84
2023-04-16T07:31:25.949Z,101367.31
2023-04-16T07:33:53.878Z,101366.25
2023-04-16T07:36:21.447Z,101347.13
2023-04-16T07:38:49.512Z,101373.84
2023-04-16T07:41:19.124Z,101373.00
2023-04-16T07:43:46.700Z,101366.25
2023-04-16T07:46:14.398Z,101357.13
2023-04-16T07:48:42.476Z,101353.13
2023-04-16T07:51:10.138Z,101348.94
2023-04-16T07:53:38.058Z,101363.59
2023-04-16T07:56:06.366Z,101366.22
2023-04-16T07:58:36.128Z,101368.22
2023-04-16T08:01:04.136Z,101365.47
2023-04-16T08:03:32.438Z,101365.78
2023-04-16T08:06:00.221Z,101369.06
2023-04-16T08:08:27.961Z,101351.31
2023-04-16T08:10:56.154Z,101352.06
2023-04-16T08:13:24.053Z,101340.19
2023-04-16T08:15:53.565Z,101346.81
2023-04-16T08:18:21.331Z,101341.06
2023-04-16T08:20:48.934Z,101341.09
2023-04-16T08:23:16.652Z,101339.75
2023-04-16T08:25:44.390Z,101335.59
2023-04-16T08:28:12.210Z,101346.28
2023-04-16T08:30:40.048Z,101339.63
2023-04-16T08:33:09.265Z,101330.16
2023-04-16T08:35:36.855Z,101346.66
2023-04-16T08:38:04.556Z,101324.47
2023-04-16T08:40:34.969Z,101318.59
2023-04-16T08:43:05.971Z,101337.78
2023-04-16T08:45:35.190Z,101324.88
2023-04-16T08:48:05.868Z,101319.38
2023-04-16T08:50:36.083Z,101326.41
2023-04-16T08:53:05.921Z,101329.81
2023-04-16T08:55:37.774Z,101349.19
2023-04-16T08:58:09.533Z,101348.38
2023-04-16T09:00:39.442Z,101363.84
2023-04-16T09:03:07.945Z,101368.69
2023-04-16T09:05:38.356Z,101373.06
2023-04-16T09:08:07.444Z,101354.75
2023-04-16T09:10:35.367Z,101352.06
2023-04-16T09:13:05.710Z,101354.63
2023-04-16T09:15:35.486Z,101344.81
2023-04-16T09:18:03.901Z,101344.53
2023-04-16T09:20:31.735Z,101345.31
2023-04-16T09:23:00.738Z,101349.41
2023-04-16T09:25:33.119Z,101335.78
2023-04-16T09:28:00.874Z,101334.31
2023-04-16T09:30:28.797Z,101328.84
2023-04-16T09:33:15.195Z,101338.19
2023-04-16T09:35:47.235Z,101332.81
2023-04-16T09:38:17.221Z,101323.16
2023-04-16T09:40:45.573Z,101334.53
2023-04-16T09:43:15.478Z,101350.19
2023-04-16T09:45:53.577Z,101323.97
2023-04-16T09:48:31.338Z,101329.66
2023-04-16T09:50:59.911Z,101334.31
2023-04-16T09:53:30.963Z,101316.25
2023-04-16T09:55:58.773Z,101300.78
2023-04-16T09:58:26.857Z,101301.16
2023-04-16T10:00:56.267Z,101310.84
2023-04-16T10:03:30.563Z,101315.47
2023-04-16T10:06:00.622Z,101288.09
2023-04-16T10:08:29.782Z,101300.84
2023-04-16T10:10:58.291Z,101293.19
2023-04-16T10:13:25.972Z,101303.56
2023-04-16T10:15:55.997Z,101289.56
2023-04-16T10:18:24.308Z,101283.09
2023-04-16T10:20:52.247Z,101279.66
2023-04-16T10:23:20.475Z,101289.75
2023-04-16T10:25:50.172Z,101287.25
2023-04-16T10:28:19.070Z,101277.25
2023-04-16T10:30:49.727Z,101271.94
2023-04-16T10:33:17.895Z,101287.97
2023-04-16T10:35:52.406Z,101284.38
2023-04-16T10:38:28.918Z,101295.78
2023-04-16T10:41:03.600Z,101275.59
2023-04-16T10:43:33.836Z,101275.97
2023-04-16T10:46:20.141Z,101271.22
2023-04-16T10:48:50.385Z,101281.25
2023-04-16T10:51:27.286Z,101277.31
2023-04-16T10:53:55.907Z,101283.38
2023-04-16T10:56:25.812Z,101280.09
2023-04-16T10:58:54.157Z,101287.56
2023-04-16T11:01:30.914Z,101285.16
2023-04-16T11:03:59.856Z,101286.72
2023-04-16T11:06:28.854Z,101304.81
2023-04-16T11:08:56.596Z,101291.63
2023-04-16T11:11:26.455Z,101297.75
2023-04-16T11:13:56.050Z,101300.94
2023-04-16T11:16:25.242Z,101277.66
2023-04-16T11:18:53.967Z,101270.22
2023-04-16T11:21:23.852Z,101271.56
2023-04-16T11:23:53.151Z,101277.38
2023-04-16T11:26:23.583Z,101280.50
2023-04-16T11:28:53.599Z,101282.16
2023-04-16T11:31:21.470Z,101281.47
2023-04-16T11:33:49.292Z,101281.78
2023-04-16T11:36:17.133Z,101278.88
2023-04-16T11:38:44.833Z,101284.91
2023-04-16T11:41:20.112Z,101282.19
2023-04-16T11:43:47.752Z,101286.22
2023-04-16T11:46:26.907Z,101295.59
2023-04-16T11:48:55.934Z,101283.50
2023-04-16T11:51:24.260Z,101272.00
2023-04-16T11:53:53.177Z,101272.84
2023-04-16T11:56:27.472Z,101273.09
2023-04-16T11:59:12.393Z,101258.22
2023-04-16T12:01:43.548Z,101261.53
2023-04-16T12:04:14.007Z,101259.78
2023-04-16T12:06:42.147Z,101269.16
2023-04-16T12:09:26.020Z,101260.41
2023-04-16T12:11:54.046Z,101262.97
2023-04-16T12:14:22.957Z,101252.81
2023-04-16T12:16:52.303Z,101245.50
2023-04-16T12:19:20.446Z,101251.56
2023-04-16T12:21:50.109Z,101250.03
2023-04-16T12:24:19.169Z,101240.19
2023-04-16T12:26:48.321Z,101259.81
2023-04-16T12:29:17.812Z,101250.47
2023-04-16T12:31:46.362Z,101263.47
2023-04-16T12:34:16.320Z,101264.81
2023-04-16T12:36:45.493Z,101264.09
2023-04-16T12:39:14.267Z,101276.34
2023-04-16T12:41:43.776Z,101273.88
2023-04-16T12:44:15.917Z,101279.28
2023-04-16T12:46:44.700Z,101276.59
2023-04-16T12:49:12.518Z,101270.41
2023-04-16T12:51:41.959Z,101279.63
2023-04-16T12:54:10.015Z,101270.69
2023-04-16T12:56:38.067Z,101245.63
2023-04-16T12:59:05.859Z,101254.69
2023-04-16T13:01:33.960Z,101240.19
2023-04-16T13:04:01.862Z,101234.25
2023-04-16T13:06:30.820Z,101252.28
2023-04-16T13:09:00.114Z,101243.91
2023-04-16T13:11:27.848Z,101223.44
2023-04-16T13:13:55.580Z,101224.44
2023-04-16T13:16:23.360Z,101208.22
2023-04-16T13:18:51.471Z,101217.00
2023-04-16T13:21:19.314Z,101215.38
2023-04-16T13:23:46.971Z,101211.78
2023-04-16T13:26:15.938Z,101198.69
2023-04-16T13:28:43.719Z,101184.66
2023-04-16T13:31:11.453Z,101173.56
2023-04-16T13:33:39.433Z,101183.06
2023-04-16T13:36:08.631Z,101164.34
2023-04-16T13:38:36.449Z,101181.13
2023-04-16T13:41:04.059Z,101167.91
2023-04-16T13:43:33.183Z,101181.88
2023-04-16T13:46:01.170Z,101170.97
2023-04-16T13:48:28.950Z,101168.25
2023-04-16T13:50:56.686Z,101175.81
2023-04-16T13:53:24.503Z,101186.34
2023-04-16T13:55:52.129Z,101173.56
2023-04-16T13:58:20.115Z,101189.19
2023-04-16T14:00:49.294Z,101200.72
2023-04-16T14:03:17.632Z,101198.22
2023-04-16T14:05:45.454Z,101186.75
2023-04-16T14:08:13.165Z,101184.50
2023-04-16T14:10:40.846Z,101183.75
2023-04-16T14:13:08.601Z,101181.06
2023-04-16T14:15:36.800Z,101169.69
2023-04-16T14:18:05.982Z,101178.47
2023-04-16T14:20:34.541Z,101175.78
2023-04-16T14:23:02.256Z,101175.47
2023-04-16T14:25:29.982Z,101186.63
2023-04-16T14:27:59.436Z,101181.28
2023-04-16T14:30:27.225Z,101184.97
2023-04-16T14:32:54.860Z,101167.03
2023-04-16T14:35:24.273Z,101174.25
2023-04-16T14:37:52.249Z,101181.13
2023-04-16T14:40:19.901Z,101180.78
2023-04-16T14:42:48.172Z,101187.09
2023-04-16T14:45:15.830Z,101181.19
2023-04-16T14:47:43.854Z,101183.28
2023-04-16T14:50:13.154Z,101175.47
2023-04-16T14:52:43.697Z,101177.03
2023-04-16T14:55:11.379Z,101168.22
2023-04-16T14:57:39.083Z,101164.31
2023-04-16T15:00:08.046Z,101163.69
2023-04-16T15:02:36.263Z,101173.88
2023-04-16T15:05:04.254Z,101169.84
2023-04-16T15:07:32.377Z,101161.78
2023-04-16T15:10:01.404Z,101170.88
2023-04-16T15:12:29.133Z,101176.22
2023-04-16T15:14:56.856Z,101174.63
2023-04-16T15:17:24.433Z,101172.97
2023-04-16T15:19:52.164Z,101168.66
2023-04-16T15:22:20.185Z,101170.47
2023-04-16T15:24:47.795Z,101161.09
2023-04-16T15:27:18.022Z,101153.28
2023-04-16T15:29:45.788Z,101173.38
2023-04-16T15:32:13.339Z,101182.22
2023-04-16T15:34:41.089Z,101161.50
2023-04-16T15:37:08.772Z,101172.69
2023-04-16T15:39:36.711Z,101170.03
2023-04-16T15:42:07.174Z,101166.56
2023-04-16T15:44:37.401Z,101174.66
2023-04-16T15:47:05.226Z,101187.00
2023-04-16T15:49:32.978Z,101173.63
2023-04-16T15:52:00.795Z,101171.34
2023-04-16T15:54:29.349Z,101170.41
2023-04-16T15:56:57.758Z,101165.31
2023-04-16T15:59:25.958Z,101175.75
2023-04-16T16:01:55.104Z,101166.91
2023-04-16T16:04:23.409Z,101153.16
2023-04-16T16:06:51.086Z,101176.41
2023-04-16T16:09:18.858Z,101168.72
2023-04-16T16:11:47.395Z,101160.66
2023-04-16T16:14:16.347Z,101165.94
2023-04-16T16:16:45.867Z,101178.56
2023-04-16T16:19:15.044Z,101161.22
2023-04-16T16:21:42.751Z,101176.06
2023-04-16T16:24:12.202Z,101182.38
2023-04-16T16:26:39.926Z,101171.78
2023-04-16T16:29:07.613Z,101175.50
2023-04-16T16:31:35.256Z,101187.88
2023-04-16T16:34:02.987Z,101183.38
2023-04-16T16:36:32.096Z,101194.16
2023-04-16T16:38:59.661Z,101195.34
2023-04-16T16:41:27.556Z,101193.88
2023-04-16T16:43:55.233Z,101212.59
2023-04-16T16:46:22.891Z,101206.88
2023-04-16T16:48:50.631Z,101193.53
2023-04-16T16:51:18.276Z,101220.66
2023-04-16T16:53:47.539Z,101216.47
2023-04-16T16:56:15.513Z,101227.22
2023-04-16T16:58:43.252Z,101233.53
2023-04-16T17:01:10.838Z,101233.75
2023-04-16T17:03:38.833Z,101249.63
2023-04-16T17:06:06.999Z,101263.88
2023-04-16T17:08:35.655Z,101245.97
2023-04-16T17:11:05.096Z,101260.78
2023-04-16T17:13:32.861Z,101270.56
2023-04-16T17:16:00.529Z,101276.84
2023-04-16T17:18:28.307Z,101282.91
2023-04-16T17:20:56.041Z,101286.53
2023-04-16T17:23:24.246Z,101285.03
2023-04-16T17:25:54.460Z,101300.78
2023-04-16T17:28:23.573Z,101298.28
2023-04-16T17:30:52.184Z,101308.75
2023-04-16T17:33:20.093Z,101298.41
2023-04-16T17:35:47.825Z,101305.47
2023-04-16T17:38:15.376Z,101323.28
2023-04-16T17:40:43.243Z,101328.78
2023-04-16T17:43:11.079Z,101332.59
2023-04-16T17:45:40.313Z,101329.28
2023-04-16T17:48:08.133Z,101331.06
2023-04-16T17:50:38.192Z,101324.19
2023-04-16T17:53:07.037Z,101306.09
2023-04-16T17:55:34.929Z,101323.44
2023-04-16T17:58:02.755Z,101327.94
2023-04-16T18:00:30.393Z,101327.22
2023-04-16T18:03:02.237Z,101324.75
2023-04-16T18:05:30.675Z,101329.28
2023-04-16T18:08:01.552Z,101326.59
2023-04-16T18:10:29.620Z,101324.16
2023-04-16T18:12:57.482Z,101335.59
2023-04-16T18:15:25.213Z,101333.19
2023-04-16T18:17:52.980Z,101334.06
2023-04-16T18:20:22.231Z,101328.91
2023-04-16T18:22:49.945Z,101331.59
2023-04-16T18:25:19.851Z,101334.00
2023-04-16T18:27:50.248Z,101315.88
2023-04-16T18:30:23.462Z,101341.22
2023-04-16T18:33:10.088Z,101337.03
2023-04-16T18:35:43.505Z,101348.44
2023-04-16T18:38:11.795Z,101341.63
2023-04-16T18:40:39.688Z,101350.44
2023-04-16T18:43:07.447Z,101354.19
2023-04-16T18:45:35.757Z,101362.25
2023-04-16T18:48:03.471Z,101348.28
2023-04-16T18:50:32.046Z,101351.00
2023-04-16T18:53:01.163Z,101339.78
2023-04-16T18:55:29.068Z,101344.13
2023-04-16T18:57:56.959Z,101349.41
2023-04-16T19:00:24.695Z,101337.31
2023-04-16T19:02:52.586Z,101333.75
2023-04-16T19:05:20.573Z,101327.78
2023-04-16T19:07:48.325Z,101324.13
2023-04-16T19:10:17.766Z,101324.31
2023-04-16T19:12:45.792Z,101337.34
2023-04-16T19:15:14.137Z,101324.22
2023-04-16T19:17:42.070Z,101332.22
2023-04-16T19:20:10.719Z,101338.31
2023-04-16T19:22:39.338Z,101331.41
2023-04-16T19:25:07.616Z,101326.25
2023-04-16T19:27:37.242Z,101342.03
2023-04-16T19:30:06.338Z,101315.06
2023-04-16T19:32:34.177Z,101329.84
2023-04-16T19:35:02.208Z,101322.00
2023-04-16T19:37:30.198Z,101328.19
2023-04-16T19:39:57.757Z,101306.69
2023-04-16T19:42:26.125Z,101329.28
2023-04-16T19:44:55.385Z,101322.34
2023-04-16T19:47:22.936Z,101308.41
2023-04-16T19:49:50.876Z,101304.91
2023-04-16T19:52:18.507Z,101297.03
2023-04-16T19:54:46.110Z,101305.88
2023-04-16T19:57:14.054Z,101283.19
2023-04-16T19:59:41.776Z,101295.47
2023-04-16T20:02:10.864Z,101286.81
2023-04-16T20:04:38.726Z,101270.44
2023-04-16T20:07:06.389Z,101273.94
2023-04-16T20:09:33.975Z,101258.94
2023-04-16T20:12:01.786Z,101265.16
2023-04-16T20:14:29.625Z,101253.16
2023-04-16T20:16:57.353Z,101254.78
2023-04-16T20:19:26.634Z,101255.78
2023-04-16T20:21:54.334Z,101263.81
2023-04-16T20:24:21.882Z,101238.50
2023-04-16T20:26:49.728Z,101240.31
2023-04-16T20:29:17.430Z,101240.41
2023-04-16T20:31:45.110Z,101245.78
2023-04-16T20:34:12.933Z,101246.75
2023-04-16T20:36:42.050Z,101235.50
2023-04-16T20:39:09.837Z,101245.00
2023-04-16T20:41:38.532Z,101242.47
2023-04-16T20:44:06.248Z,101245.16
2023-04-16T20:46:33.928Z,101248.44
2023-04-16T20:49:01.898Z,101245.06
2023-04-16T20:51:29.706Z,101260.72
2023-04-16T20:53:59.022Z,101246.94
2023-04-16T20:56:26.750Z,101257.38
2023-04-16T20:58:54.681Z,101266.16
2023-04-16T21:01:22.263Z,101266.16
2023-04-16T21:03:50.184Z,101268.06
2023-04-16T21:06:18.013Z,101258.53
2023-04-16T21:08:45.690Z,101260.06
2023-04-16T21:11:14.946Z,101258.28
2023-04-16T21:13:42.617Z,101253.22
2023-04-16T21:16:10.225Z,101257.69
2023-04-16T21:18:38.110Z,101262.00
2023-04-16T21:21:05.971Z,101262.88
2023-04-16T21:23:33.637Z,101256.94
2023-04-16T21:26:01.343Z,101256.97
2023-04-16T21:28:30.881Z,101267.56
2023-04-16T21:30:58.487Z,101248.47
2023-04-16T21:33:27.170Z,101249.53
2023-04-16T21:35:55.336Z,101237.28
2023-04-16T21:38:23.212Z,101247.63
2023-04-16T21:40:51.268Z,101227.50
2023-04-16T21:43:19.090Z,101243.16
2023-04-16T21:45:48.231Z,101232.72
2023-04-16T21:48:16.152Z,101239.66
2023-04-16T21:50:43.904Z,101225.63
2023-04-16T21:53:11.648Z,101229.81
2023-04-16T21:55:39.506Z,101225.47
2023-04-16T21:58:07.693Z,101237.56
2023-04-16T22:00:35.737Z,101236.63
2023-04-16T22:03:05.067Z,101244.56
2023-04-16T22:05:33.046Z,101226.13
2023-04-16T22:08:08.016Z,101234.94
2023-04-16T22:10:45.379Z,101228.13
2023-04-16T22:13:12.970Z,101229.75
2023-04-16T22:15:40.605Z,101216.69
2023-04-16T22:18:10.217Z,101228.16
2023-04-16T22:20:38.762Z,101204.59
2023-04-16T22:23:06.492Z,101209.53
2023-04-16T22:25:35.180Z,101213.19
2023-04-16T22:28:02.776Z,101208.81
2023-04-16T22:30:30.576Z,101209.78
2023-04-16T22:32:58.618Z,101191.47
2023-04-16T22:35:27.634Z,101197.56
2023-04-16T22:37:55.229Z,101195.81
2023-04-16T22:40:23.154Z,101193.28
2023-04-16T22:42:50.665Z,101195.00
2023-04-16T22:45:18.364Z,101192.34
2023-04-16T22:47:46.340Z,101182.69
2023-04-16T22:50:13.913Z,101186.22
2023-04-16T22:52:42.997Z,101181.88
2023-04-16T22:55:10.935Z,101187.94
2023-04-16T22:57:38.569Z,101178.44
2023-04-16T23:00:07.410Z,101185.53
2023-04-16T23:02:36.044Z,101180.28
2023-04-16T23:05:04.054Z,101188.25
2023-04-16T23:07:32.110Z,101172.63
2023-04-16T23:10:01.325Z,101173.34
2023-04-16T23:12:28.936Z,101177.88
2023-04-16T23:14:56.825Z,101175.28
2023-04-16T23:17:24.858Z,101158.03
2023-04-16T23:19:52.487Z,101182.34
2023-04-16T23:22:20.307Z,101166.53
2023-04-16T23:24:48.081Z,101177.91
2023-04-16T23:27:17.049Z,101178.75
2023-04-16T23:29:44.609Z,101171.66
2023-04-16T23:32:12.615Z,101171.66
2023-04-16T23:34:40.357Z,101165.59
2023-04-16T23:37:07.941Z,101166.34
2023-04-16T23:39:35.774Z,101157.59
2023-04-16T23:42:03.562Z,101148.09
2023-04-16T23:44:32.813Z,101159.16
2023-04-16T23:47:01.226Z,101155.63
2023-04-16T23:49:28.895Z,101150.47
2023-04-16T23:51:56.542Z,101152.25
2023-04-16T23:54:24.391Z,101153.84
2023-04-16T23:56:51.975Z,101147.75
2023-04-16T23:59:19.658Z,101152.97
